createdAt,value
2019-03-26T00:00:28.689Z,7.25
2019-03-26T00:01:10.472Z,7.72
2019-03-26T00:01:44.368Z,6.00
2019-03-26T00:02:17.744Z,6.97
2019-03-26T00:02:50.773Z,7.12
2019-03-26T00:03:23.796Z,6.03
2019-03-26T00:04:05.676Z,6.72
2019-03-26T00:04:31.643Z,7.03
2019-03-26T00:05:05.081Z,7.45
2019-03-26T00:05:38.763Z,7.12
2019-03-26T00:06:11.793Z,6.87
2019-03-26T00:06:45.271Z,6.10
2019-03-26T00:07:18.732Z,7.20
2019-03-26T00:07:52.113Z,6.83
2019-03-26T00:08:25.619Z,7.75
2019-03-26T00:08:58.634Z,6.85
2019-03-26T00:09:32.444Z,7.70
2019-03-26T00:10:07.182Z,7.08
2019-03-26T00:10:40.202Z,6.92
2019-03-26T00:11:13.700Z,7.28
2019-03-26T00:11:46.740Z,6.53
2019-03-26T00:12:19.779Z,7.67
2019-03-26T00:12:53.143Z,7.62
2019-03-26T00:13:26.174Z,7.75
2019-03-26T00:13:59.207Z,7.30
2019-03-26T00:14:32.616Z,7.12
2019-03-26T00:15:15.854Z,7.85
2019-03-26T00:15:48.889Z,7.40
2019-03-26T00:16:21.940Z,7.65
2019-03-26T00:16:55.324Z,7.45
2019-03-26T00:17:28.383Z,7.78
2019-03-26T00:18:01.784Z,8.00
2019-03-26T00:18:35.477Z,7.65
2019-03-26T00:19:08.847Z,9.08
2019-03-26T00:19:42.263Z,8.23
2019-03-26T00:20:15.347Z,8.78
2019-03-26T00:20:48.315Z,8.25
2019-03-26T00:21:21.342Z,8.50
2019-03-26T00:21:54.411Z,9.05
2019-03-26T00:22:27.450Z,8.75
2019-03-26T00:23:00.480Z,8.70
2019-03-26T00:23:33.509Z,8.53
2019-03-26T00:24:06.848Z,9.23
2019-03-26T00:24:39.999Z,8.45
2019-03-26T00:25:13.051Z,8.00
2019-03-26T00:25:46.070Z,8.90
2019-03-26T00:26:19.451Z,9.33
2019-03-26T00:26:52.468Z,8.80
2019-03-26T00:27:25.522Z,7.62
2019-03-26T00:27:58.546Z,7.30
2019-03-26T00:28:31.584Z,7.62
2019-03-26T00:29:04.700Z,6.75
2019-03-26T00:29:37.726Z,8.18
2019-03-26T00:30:11.218Z,7.78
2019-03-26T00:30:44.579Z,7.87
2019-03-26T00:31:18.392Z,7.20
2019-03-26T00:31:51.526Z,7.25
2019-03-26T00:32:24.608Z,7.08
2019-03-26T00:32:57.608Z,8.15
2019-03-26T00:33:36.520Z,7.40
2019-03-26T00:34:18.775Z,7.83
2019-03-26T00:34:42.290Z,6.95
2019-03-26T00:35:15.611Z,7.22
2019-03-26T00:35:48.645Z,7.30
2019-03-26T00:36:21.677Z,7.37
2019-03-26T00:36:54.703Z,8.48
2019-03-26T00:37:27.730Z,7.25
2019-03-26T00:38:00.784Z,6.95
2019-03-26T00:38:33.844Z,7.25
2019-03-26T00:39:08.100Z,7.58
2019-03-26T00:39:41.130Z,7.70
2019-03-26T00:40:14.546Z,7.90
2019-03-26T00:40:47.574Z,7.70
2019-03-26T00:41:21.048Z,7.25
2019-03-26T00:41:54.366Z,7.40
2019-03-26T00:42:27.383Z,6.75
2019-03-26T00:43:00.757Z,7.58
2019-03-26T00:43:33.802Z,7.33
2019-03-26T00:44:07.653Z,7.25
2019-03-26T00:44:40.784Z,8.35
2019-03-26T00:45:14.174Z,6.90
2019-03-26T00:45:47.196Z,7.67
2019-03-26T00:46:20.227Z,7.85
2019-03-26T00:46:53.247Z,6.60
2019-03-26T00:47:26.279Z,6.80
2019-03-26T00:47:59.308Z,7.30
2019-03-26T00:48:32.698Z,6.87
2019-03-26T00:49:06.156Z,6.90
2019-03-26T00:49:39.462Z,7.50
2019-03-26T00:50:13.054Z,7.03
2019-03-26T00:50:46.480Z,6.55
2019-03-26T00:51:19.951Z,6.72
2019-03-26T00:51:52.984Z,6.75
2019-03-26T00:52:25.999Z,6.80
2019-03-26T00:52:59.461Z,7.35
2019-03-26T00:53:33.174Z,6.53
2019-03-26T00:54:06.194Z,7.62
2019-03-26T00:54:39.367Z,6.58
2019-03-26T00:55:22.561Z,7.53
2019-03-26T00:55:47.805Z,6.80
2019-03-26T00:56:20.834Z,6.60
2019-03-26T00:56:54.406Z,7.55
2019-03-26T00:57:27.448Z,7.35
2019-03-26T00:58:01.736Z,6.65
2019-03-26T00:58:34.982Z,7.12
2019-03-26T00:59:08.008Z,6.85
2019-03-26T00:59:41.026Z,6.60
2019-03-26T01:00:16.089Z,7.10
2019-03-26T01:00:49.109Z,8.00
2019-03-26T01:01:22.471Z,7.40
2019-03-26T01:01:55.497Z,6.15
2019-03-26T01:02:28.808Z,6.62
2019-03-26T01:03:01.832Z,7.87
2019-03-26T01:03:35.158Z,6.47
2019-03-26T01:04:08.200Z,6.97
2019-03-26T01:04:41.221Z,7.42
2019-03-26T01:05:14.587Z,6.97
2019-03-26T01:05:47.631Z,7.20
2019-03-26T01:06:20.665Z,7.30
2019-03-26T01:06:54.372Z,6.58
2019-03-26T01:07:27.383Z,7.87
2019-03-26T01:08:00.399Z,7.45
2019-03-26T01:08:33.431Z,7.60
2019-03-26T01:09:06.847Z,6.37
2019-03-26T01:09:39.855Z,6.97
2019-03-26T01:10:26.124Z,7.60
2019-03-26T01:10:59.959Z,7.62
2019-03-26T01:11:33.166Z,7.58
2019-03-26T01:12:06.574Z,8.45
2019-03-26T01:12:39.598Z,8.40
2019-03-26T01:13:12.619Z,7.95
2019-03-26T01:13:45.986Z,8.68
2019-03-26T01:14:19.392Z,7.53
2019-03-26T01:14:52.402Z,7.20
2019-03-26T01:15:25.436Z,7.80
2019-03-26T01:15:58.800Z,8.90
2019-03-26T01:16:31.869Z,7.60
2019-03-26T01:17:04.888Z,7.85
2019-03-26T01:17:37.925Z,8.23
2019-03-26T01:18:11.076Z,8.38
2019-03-26T01:18:44.111Z,7.72
2019-03-26T01:19:17.474Z,9.08
2019-03-26T01:19:50.500Z,8.48
2019-03-26T01:20:23.954Z,7.95
2019-03-26T01:20:57.421Z,7.87
2019-03-26T01:21:30.450Z,7.08
2019-03-26T01:22:03.847Z,8.58
2019-03-26T01:22:36.883Z,8.05
2019-03-26T01:23:09.898Z,8.13
2019-03-26T01:23:42.918Z,7.78
2019-03-26T01:24:15.940Z,8.35
2019-03-26T01:24:49.392Z,8.75
2019-03-26T01:25:22.420Z,8.40
2019-03-26T01:25:55.819Z,7.83
2019-03-26T01:26:29.176Z,8.10
2019-03-26T01:27:02.189Z,8.35
2019-03-26T01:27:35.522Z,8.93
2019-03-26T01:28:08.927Z,8.75
2019-03-26T01:28:41.964Z,8.68
2019-03-26T01:29:14.982Z,8.63
2019-03-26T01:29:48.004Z,8.20
2019-03-26T01:30:21.138Z,9.10
2019-03-26T01:30:54.161Z,9.93
2019-03-26T01:31:27.185Z,7.90
2019-03-26T01:32:00.212Z,8.38
2019-03-26T01:32:33.233Z,7.92
2019-03-26T01:33:06.587Z,8.25
2019-03-26T01:33:39.628Z,8.00
2019-03-26T01:34:12.680Z,8.20
2019-03-26T01:34:46.438Z,8.48
2019-03-26T01:35:19.528Z,8.13
2019-03-26T01:35:53.186Z,8.15
2019-03-26T01:36:26.220Z,8.30
2019-03-26T01:36:59.240Z,8.53
2019-03-26T01:37:32.696Z,9.50
2019-03-26T01:38:05.724Z,7.40
2019-03-26T01:38:38.779Z,7.92
2019-03-26T01:39:11.782Z,9.75
2019-03-26T01:39:45.286Z,8.30
2019-03-26T01:40:18.303Z,8.75
2019-03-26T01:40:51.329Z,8.93
2019-03-26T01:41:24.671Z,8.70
2019-03-26T01:41:57.702Z,8.33
2019-03-26T01:42:31.288Z,8.35
2019-03-26T01:43:04.512Z,7.92
2019-03-26T01:43:38.203Z,8.83
2019-03-26T01:44:11.242Z,8.85
2019-03-26T01:44:44.550Z,7.35
2019-03-26T01:45:17.690Z,8.43
2019-03-26T01:45:50.720Z,8.13
2019-03-26T01:46:23.734Z,7.95
2019-03-26T01:46:57.216Z,8.30
2019-03-26T01:47:30.257Z,7.87
2019-03-26T01:48:03.264Z,8.23
2019-03-26T01:48:36.727Z,8.75
2019-03-26T01:49:09.736Z,9.00
2019-03-26T01:49:42.800Z,8.28
2019-03-26T01:50:15.835Z,9.35
2019-03-26T01:50:49.078Z,9.55
2019-03-26T01:51:22.101Z,8.30
2019-03-26T01:51:55.868Z,9.40
2019-03-26T01:52:28.870Z,9.80
2019-03-26T01:53:02.551Z,8.78
2019-03-26T01:53:35.566Z,8.48
2019-03-26T01:54:08.596Z,8.48
2019-03-26T01:54:42.363Z,7.95
2019-03-26T01:55:15.413Z,8.65
2019-03-26T01:55:48.544Z,8.28
2019-03-26T01:56:21.575Z,10.15
2019-03-26T01:56:54.635Z,8.93
2019-03-26T01:57:28.161Z,9.38
2019-03-26T01:58:01.170Z,10.45
2019-03-26T01:58:34.522Z,9.08
2019-03-26T01:59:07.522Z,10.15
2019-03-26T01:59:40.898Z,10.93
2019-03-26T02:00:14.129Z,8.83
2019-03-26T02:00:47.529Z,9.65
2019-03-26T02:01:20.534Z,8.60
2019-03-26T02:01:53.564Z,9.60
2019-03-26T02:02:26.958Z,9.00
2019-03-26T02:02:59.986Z,9.10
2019-03-26T02:03:33.000Z,9.10
2019-03-26T02:04:06.015Z,9.03
2019-03-26T02:04:39.025Z,9.35
2019-03-26T02:05:12.172Z,9.05
2019-03-26T02:05:45.469Z,8.30
2019-03-26T02:06:19.095Z,7.83
2019-03-26T02:06:52.120Z,8.53
2019-03-26T02:07:25.130Z,8.30
2019-03-26T02:07:58.271Z,9.55
2019-03-26T02:08:31.292Z,8.65
2019-03-26T02:09:05.648Z,9.08
2019-03-26T02:09:38.659Z,8.55
2019-03-26T02:10:11.771Z,8.83
2019-03-26T02:10:45.144Z,9.70
2019-03-26T02:11:18.172Z,8.20
2019-03-26T02:11:51.230Z,7.67
2019-03-26T02:12:24.251Z,7.85
2019-03-26T02:12:57.262Z,8.55
2019-03-26T02:13:30.372Z,9.13
2019-03-26T02:14:03.578Z,8.00
2019-03-26T02:14:36.614Z,8.68
2019-03-26T02:15:14.575Z,8.65
2019-03-26T02:15:47.935Z,8.00
2019-03-26T02:16:20.997Z,8.45
2019-03-26T02:16:54.010Z,9.43
2019-03-26T02:17:27.062Z,8.50
2019-03-26T02:18:01.020Z,8.88
2019-03-26T02:18:34.344Z,8.60
2019-03-26T02:19:07.719Z,8.10
2019-03-26T02:19:41.130Z,8.88
2019-03-26T02:20:14.167Z,8.90
2019-03-26T02:20:47.199Z,9.13
2019-03-26T02:21:20.327Z,8.15
2019-03-26T02:21:53.733Z,8.50
2019-03-26T02:22:26.722Z,8.65
2019-03-26T02:22:59.768Z,7.75
2019-03-26T02:23:32.769Z,8.70
2019-03-26T02:24:05.808Z,9.00
2019-03-26T02:24:39.186Z,9.00
2019-03-26T02:25:12.207Z,8.08
2019-03-26T02:25:45.231Z,7.65
2019-03-26T02:26:18.621Z,8.60
2019-03-26T02:26:51.645Z,8.05
2019-03-26T02:27:24.663Z,7.87
2019-03-26T02:27:57.705Z,7.10
2019-03-26T02:28:30.742Z,8.08
2019-03-26T02:29:03.754Z,8.08
2019-03-26T02:29:36.775Z,8.25
2019-03-26T02:30:09.791Z,7.62
2019-03-26T02:30:42.816Z,7.70
2019-03-26T02:31:15.999Z,8.20
2019-03-26T02:31:49.036Z,8.35
2019-03-26T02:32:22.057Z,7.53
2019-03-26T02:32:55.067Z,8.28
2019-03-26T02:33:28.297Z,8.73
2019-03-26T02:34:01.675Z,8.48
2019-03-26T02:34:34.697Z,8.50
2019-03-26T02:35:17.484Z,7.92
2019-03-26T02:35:43.074Z,7.97
2019-03-26T02:36:16.092Z,7.92
2019-03-26T02:36:49.421Z,7.70
2019-03-26T02:37:22.440Z,8.88
2019-03-26T02:37:55.460Z,8.18
2019-03-26T02:38:28.862Z,7.85
2019-03-26T02:39:01.877Z,8.15
2019-03-26T02:39:34.921Z,7.97
2019-03-26T02:40:08.355Z,8.30
2019-03-26T02:40:41.381Z,7.33
2019-03-26T02:41:14.766Z,8.63
2019-03-26T02:41:48.114Z,9.03
2019-03-26T02:42:21.508Z,7.65
2019-03-26T02:42:54.888Z,7.58
2019-03-26T02:43:27.905Z,7.78
2019-03-26T02:44:01.294Z,8.40
2019-03-26T02:44:34.308Z,8.83
2019-03-26T02:45:07.703Z,7.45
2019-03-26T02:45:40.733Z,7.97
2019-03-26T02:46:14.258Z,7.10
2019-03-26T02:46:47.273Z,6.85
2019-03-26T02:47:20.291Z,8.33
2019-03-26T02:47:53.691Z,7.47
2019-03-26T02:48:26.705Z,7.78
2019-03-26T02:49:00.214Z,7.85
2019-03-26T02:49:33.526Z,7.72
2019-03-26T02:50:07.284Z,7.83
2019-03-26T02:50:40.309Z,7.90
2019-03-26T02:51:13.748Z,8.65
2019-03-26T02:51:46.770Z,8.18
2019-03-26T02:52:20.231Z,8.35
2019-03-26T02:52:53.265Z,7.55
2019-03-26T02:53:26.845Z,8.80
2019-03-26T02:54:00.066Z,7.70
2019-03-26T02:54:33.101Z,8.63
2019-03-26T02:55:07.131Z,7.20
2019-03-26T02:55:40.565Z,8.35
2019-03-26T02:56:13.633Z,7.45
2019-03-26T02:56:46.659Z,8.08
2019-03-26T02:57:20.022Z,9.75
2019-03-26T02:57:53.366Z,7.60
2019-03-26T02:58:26.757Z,8.25
2019-03-26T02:58:59.779Z,8.23
2019-03-26T02:59:32.787Z,7.45
2019-03-26T03:00:06.468Z,8.48
2019-03-26T03:00:40.270Z,7.53
2019-03-26T03:01:13.390Z,7.45
2019-03-26T03:01:46.440Z,8.50
2019-03-26T03:02:19.535Z,7.95
2019-03-26T03:02:52.547Z,8.10
2019-03-26T03:03:25.576Z,7.72
2019-03-26T03:03:59.218Z,7.30
2019-03-26T03:04:32.626Z,7.90
2019-03-26T03:05:06.061Z,7.58
2019-03-26T03:05:39.072Z,8.53
2019-03-26T03:06:12.471Z,6.85
2019-03-26T03:06:45.769Z,7.72
2019-03-26T03:07:18.942Z,7.75
2019-03-26T03:07:51.962Z,8.98
2019-03-26T03:08:24.979Z,7.80
2019-03-26T03:08:58.004Z,7.80
2019-03-26T03:09:31.036Z,7.87
2019-03-26T03:10:04.718Z,8.20
2019-03-26T03:10:37.756Z,8.43
2019-03-26T03:11:10.774Z,8.05
2019-03-26T03:11:44.115Z,7.95
2019-03-26T03:12:17.135Z,7.80
2019-03-26T03:12:50.205Z,6.92
2019-03-26T03:13:23.968Z,7.50
2019-03-26T03:13:56.998Z,7.42
2019-03-26T03:14:30.321Z,8.58
2019-03-26T03:15:03.958Z,7.00
2019-03-26T03:15:37.291Z,7.40
2019-03-26T03:16:10.466Z,8.03
2019-03-26T03:16:43.484Z,8.58
2019-03-26T03:17:16.514Z,8.25
2019-03-26T03:17:49.555Z,8.35
2019-03-26T03:18:22.624Z,8.48
2019-03-26T03:18:55.644Z,8.80
2019-03-26T03:19:28.705Z,6.65
2019-03-26T03:20:01.866Z,7.95
2019-03-26T03:20:35.270Z,8.03
2019-03-26T03:21:08.652Z,7.75
2019-03-26T03:21:41.680Z,7.90
2019-03-26T03:22:14.713Z,7.37
2019-03-26T03:22:48.075Z,7.92
2019-03-26T03:23:21.473Z,7.67
2019-03-26T03:23:54.924Z,7.20
2019-03-26T03:24:28.250Z,7.75
2019-03-26T03:25:01.275Z,8.00
2019-03-26T03:25:34.384Z,7.17
2019-03-26T03:26:07.395Z,8.63
2019-03-26T03:26:40.416Z,7.70
2019-03-26T03:27:13.423Z,6.67
2019-03-26T03:27:46.788Z,8.18
2019-03-26T03:28:19.879Z,8.45
2019-03-26T03:28:53.031Z,7.08
2019-03-26T03:29:26.083Z,8.43
2019-03-26T03:29:59.102Z,7.00
2019-03-26T03:30:32.120Z,7.87
2019-03-26T03:31:05.146Z,7.90
2019-03-26T03:31:38.165Z,7.37
2019-03-26T03:32:11.177Z,8.40
2019-03-26T03:32:44.193Z,7.75
2019-03-26T03:33:17.668Z,7.47
2019-03-26T03:33:50.683Z,7.90
2019-03-26T03:34:24.002Z,7.55
2019-03-26T03:34:57.148Z,8.85
2019-03-26T03:35:30.220Z,7.80
2019-03-26T03:36:03.353Z,8.45
2019-03-26T03:36:36.518Z,8.48
2019-03-26T03:37:09.522Z,8.10
2019-03-26T03:37:42.544Z,8.45
2019-03-26T03:38:15.570Z,7.58
2019-03-26T03:38:48.588Z,8.10
2019-03-26T03:39:22.020Z,8.43
2019-03-26T03:39:55.040Z,7.78
2019-03-26T03:40:28.086Z,7.65
2019-03-26T03:41:01.731Z,8.05
2019-03-26T03:41:34.851Z,8.03
2019-03-26T03:42:07.969Z,7.90
2019-03-26T03:42:41.277Z,7.92
2019-03-26T03:43:14.323Z,7.53
2019-03-26T03:43:47.341Z,8.15
2019-03-26T03:44:20.357Z,7.67
2019-03-26T03:44:53.381Z,8.43
2019-03-26T03:45:28.392Z,8.35
2019-03-26T03:46:02.541Z,7.60
2019-03-26T03:46:35.785Z,8.18
2019-03-26T03:47:11.171Z,8.53
2019-03-26T03:47:44.677Z,8.53
2019-03-26T03:48:18.301Z,8.08
2019-03-26T03:48:51.732Z,8.55
2019-03-26T03:49:26.239Z,8.65
2019-03-26T03:50:00.635Z,8.90
2019-03-26T03:50:36.178Z,7.65
2019-03-26T03:51:10.097Z,7.90
2019-03-26T03:51:45.170Z,7.75
2019-03-26T03:52:19.983Z,7.42
2019-03-26T03:52:55.520Z,7.87
2019-03-26T03:53:28.532Z,7.28
2019-03-26T03:54:02.101Z,8.03
2019-03-26T03:54:38.132Z,7.70
2019-03-26T03:55:11.730Z,7.58
2019-03-26T03:55:45.256Z,8.15
2019-03-26T03:56:20.496Z,8.55
2019-03-26T03:56:55.920Z,8.35
2019-03-26T03:57:31.283Z,7.90
2019-03-26T03:58:04.510Z,7.30
2019-03-26T03:58:39.544Z,9.00
2019-03-26T03:59:12.595Z,7.80
2019-03-26T03:59:45.798Z,8.28
2019-03-26T04:00:34.858Z,8.58
2019-03-26T04:01:07.883Z,8.20
2019-03-26T04:01:41.240Z,8.30
2019-03-26T04:02:15.041Z,7.95
2019-03-26T04:02:48.204Z,8.98
2019-03-26T04:03:21.220Z,8.63
2019-03-26T04:03:54.249Z,9.80
2019-03-26T04:04:27.996Z,9.05
2019-03-26T04:05:01.011Z,9.08
2019-03-26T04:05:34.175Z,8.45
2019-03-26T04:06:09.475Z,8.88
2019-03-26T04:06:42.021Z,9.08
2019-03-26T04:07:15.245Z,9.30
2019-03-26T04:07:48.285Z,8.58
2019-03-26T04:08:21.313Z,8.58
2019-03-26T04:08:54.322Z,8.35
2019-03-26T04:09:27.426Z,8.95
2019-03-26T04:10:01.483Z,8.55
2019-03-26T04:10:34.509Z,9.10
2019-03-26T04:11:07.520Z,9.60
2019-03-26T04:11:40.552Z,8.30
2019-03-26T04:12:13.587Z,9.38
2019-03-26T04:12:46.644Z,9.00
2019-03-26T04:13:19.675Z,7.42
2019-03-26T04:13:52.702Z,8.35
2019-03-26T04:14:25.699Z,8.93
2019-03-26T04:14:59.129Z,8.65
2019-03-26T04:15:34.936Z,9.85
2019-03-26T04:16:06.972Z,8.35
2019-03-26T04:16:40.021Z,9.30
2019-03-26T04:17:13.020Z,8.48
2019-03-26T04:17:46.045Z,9.28
2019-03-26T04:18:19.106Z,8.80
2019-03-26T04:18:52.133Z,7.78
2019-03-26T04:19:25.158Z,8.23
2019-03-26T04:19:58.178Z,9.38
2019-03-26T04:20:31.186Z,8.93
2019-03-26T04:21:04.592Z,8.58
2019-03-26T04:21:37.613Z,9.63
2019-03-26T04:22:10.681Z,9.18
2019-03-26T04:22:43.657Z,10.55
2019-03-26T04:23:16.684Z,10.00
2019-03-26T04:23:49.745Z,9.20
2019-03-26T04:24:22.771Z,10.63
2019-03-26T04:24:55.797Z,9.63
2019-03-26T04:25:28.811Z,9.80
2019-03-26T04:26:01.849Z,9.60
2019-03-26T04:26:34.866Z,9.40
2019-03-26T04:27:07.893Z,9.43
2019-03-26T04:27:40.919Z,10.15
2019-03-26T04:28:13.931Z,9.30
2019-03-26T04:28:46.952Z,10.53
2019-03-26T04:29:20.278Z,9.50
2019-03-26T04:29:53.707Z,9.83
2019-03-26T04:30:30.915Z,10.68
2019-03-26T04:31:03.954Z,10.20
2019-03-26T04:31:36.972Z,10.03
2019-03-26T04:32:10.358Z,10.32
2019-03-26T04:32:43.848Z,10.28
2019-03-26T04:33:16.883Z,10.40
2019-03-26T04:33:50.028Z,9.83
2019-03-26T04:34:23.095Z,11.75
2019-03-26T04:34:56.181Z,10.85
2019-03-26T04:35:29.306Z,10.35
2019-03-26T04:36:02.337Z,10.50
2019-03-26T04:36:35.688Z,10.00
2019-03-26T04:37:08.859Z,10.78
2019-03-26T04:37:42.266Z,9.93
2019-03-26T04:38:15.298Z,10.80
2019-03-26T04:38:48.324Z,10.05
2019-03-26T04:39:21.345Z,9.90
2019-03-26T04:39:54.842Z,10.43
2019-03-26T04:40:28.237Z,11.90
2019-03-26T04:41:01.259Z,10.60
2019-03-26T04:41:34.594Z,10.55
2019-03-26T04:42:08.005Z,10.60
2019-03-26T04:42:41.026Z,10.32
2019-03-26T04:43:14.367Z,10.80
2019-03-26T04:43:47.389Z,11.38
2019-03-26T04:44:20.423Z,11.22
2019-03-26T04:44:53.980Z,10.70
2019-03-26T04:45:27.216Z,9.60
2019-03-26T04:46:00.447Z,10.70
2019-03-26T04:46:33.470Z,11.65
2019-03-26T04:47:06.498Z,10.30
2019-03-26T04:47:39.887Z,10.38
2019-03-26T04:48:12.900Z,11.20
2019-03-26T04:48:45.939Z,10.60
2019-03-26T04:49:18.976Z,11.28
2019-03-26T04:49:51.995Z,10.10
2019-03-26T04:50:25.033Z,10.32
2019-03-26T04:50:58.096Z,11.08
2019-03-26T04:51:31.500Z,10.95
2019-03-26T04:52:04.524Z,11.00
2019-03-26T04:52:37.555Z,10.65
2019-03-26T04:53:10.578Z,11.75
2019-03-26T04:53:43.911Z,10.40
2019-03-26T04:54:16.949Z,10.88
2019-03-26T04:54:49.984Z,10.18
2019-03-26T04:55:23.329Z,10.58
2019-03-26T04:55:56.349Z,10.38
2019-03-26T04:56:29.420Z,10.50
2019-03-26T04:57:02.448Z,11.33
2019-03-26T04:57:35.626Z,11.08
2019-03-26T04:58:08.930Z,10.13
2019-03-26T04:58:43.968Z,11.53
2019-03-26T04:59:16.928Z,10.18
2019-03-26T04:59:50.346Z,9.85
2019-03-26T05:00:23.822Z,10.95
2019-03-26T05:00:56.845Z,10.50
2019-03-26T05:01:30.636Z,10.45
2019-03-26T05:02:04.076Z,10.48
2019-03-26T05:02:37.094Z,11.20
2019-03-26T05:03:10.126Z,10.78
2019-03-26T05:03:43.134Z,10.10
2019-03-26T05:04:16.166Z,10.80
2019-03-26T05:04:49.187Z,11.00
2019-03-26T05:05:22.207Z,10.53
2019-03-26T05:05:55.244Z,10.05
2019-03-26T05:06:37.371Z,10.40
2019-03-26T05:07:03.358Z,10.38
2019-03-26T05:07:36.725Z,11.15
2019-03-26T05:08:09.752Z,10.13
2019-03-26T05:08:42.788Z,10.75
2019-03-26T05:09:16.247Z,12.00
2019-03-26T05:09:50.074Z,10.25
2019-03-26T05:10:23.241Z,10.70
2019-03-26T05:10:56.612Z,10.15
2019-03-26T05:11:29.641Z,10.23
2019-03-26T05:12:02.651Z,11.68
2019-03-26T05:12:35.679Z,12.47
2019-03-26T05:13:08.980Z,11.48
2019-03-26T05:13:41.994Z,12.13
2019-03-26T05:14:15.792Z,11.70
2019-03-26T05:14:48.924Z,10.80
2019-03-26T05:15:21.955Z,10.05
2019-03-26T05:15:55.299Z,10.72
2019-03-26T05:16:28.322Z,12.07
2019-03-26T05:17:01.350Z,10.35
2019-03-26T05:17:34.380Z,11.18
2019-03-26T05:18:07.399Z,10.78
2019-03-26T05:18:40.441Z,10.53
2019-03-26T05:19:13.864Z,10.40
2019-03-26T05:19:47.267Z,11.35
2019-03-26T05:20:20.620Z,10.43
2019-03-26T05:20:54.013Z,11.22
2019-03-26T05:21:27.422Z,10.32
2019-03-26T05:22:00.461Z,11.12
2019-03-26T05:22:33.844Z,11.22
2019-03-26T05:23:06.893Z,10.53
2019-03-26T05:23:40.211Z,11.00
2019-03-26T05:24:13.650Z,11.40
2019-03-26T05:24:46.666Z,10.45
2019-03-26T05:25:19.699Z,10.70
2019-03-26T05:25:52.719Z,10.05
2019-03-26T05:26:26.094Z,10.63
2019-03-26T05:26:59.120Z,11.55
2019-03-26T05:27:44.548Z,10.45
2019-03-26T05:28:06.976Z,9.95
2019-03-26T05:28:40.008Z,10.78
2019-03-26T05:29:13.174Z,11.33
2019-03-26T05:29:46.218Z,10.65
2019-03-26T05:30:19.251Z,10.70
2019-03-26T05:30:52.280Z,11.38
2019-03-26T05:31:25.309Z,11.18
2019-03-26T05:31:58.336Z,10.60
2019-03-26T05:32:31.360Z,10.63
2019-03-26T05:33:04.387Z,10.20
2019-03-26T05:33:37.412Z,10.90
2019-03-26T05:34:10.435Z,11.40
2019-03-26T05:34:43.510Z,10.10
2019-03-26T05:35:16.978Z,10.98
2019-03-26T05:35:51.644Z,10.40
2019-03-26T05:36:24.854Z,10.32
2019-03-26T05:36:58.447Z,10.18
2019-03-26T05:37:31.484Z,10.35
2019-03-26T05:38:04.594Z,10.55
2019-03-26T05:38:37.989Z,10.70
2019-03-26T05:39:11.011Z,10.40
2019-03-26T05:39:44.054Z,10.50
2019-03-26T05:40:17.266Z,10.78
2019-03-26T05:40:50.332Z,10.58
2019-03-26T05:41:23.776Z,9.63
2019-03-26T05:41:56.783Z,10.53
2019-03-26T05:42:29.821Z,10.63
2019-03-26T05:43:02.832Z,10.00
2019-03-26T05:43:35.864Z,9.05
2019-03-26T05:44:08.924Z,9.98
2019-03-26T05:44:41.942Z,10.00
2019-03-26T05:45:15.268Z,10.05
2019-03-26T05:45:48.675Z,9.25
2019-03-26T05:46:21.995Z,10.18
2019-03-26T05:46:55.010Z,8.83
2019-03-26T05:47:28.388Z,8.53
2019-03-26T05:48:01.400Z,9.90
2019-03-26T05:48:34.422Z,8.23
2019-03-26T05:49:07.465Z,9.48
2019-03-26T05:49:40.485Z,7.70
2019-03-26T05:50:15.703Z,8.50
2019-03-26T05:50:48.727Z,9.03
2019-03-26T05:51:21.772Z,9.18
2019-03-26T05:51:54.826Z,7.85
2019-03-26T05:52:27.896Z,9.55
2019-03-26T05:53:00.930Z,8.60
2019-03-26T05:53:34.075Z,9.23
2019-03-26T05:54:07.102Z,8.55
2019-03-26T05:54:40.126Z,8.53
2019-03-26T05:55:13.158Z,8.25
2019-03-26T05:55:46.196Z,7.67
2019-03-26T05:56:19.578Z,7.47
2019-03-26T05:56:52.620Z,8.50
2019-03-26T05:57:26.303Z,8.10
2019-03-26T05:57:59.688Z,8.85
2019-03-26T05:58:33.138Z,8.43
2019-03-26T05:59:06.610Z,8.55
2019-03-26T05:59:39.636Z,9.08
2019-03-26T06:00:22.048Z,7.25
2019-03-26T06:00:55.406Z,8.40
2019-03-26T06:01:28.439Z,9.20
2019-03-26T06:02:13.569Z,8.10
2019-03-26T06:02:36.734Z,8.25
2019-03-26T06:03:09.811Z,8.33
2019-03-26T06:03:43.296Z,9.25
2019-03-26T06:04:16.616Z,8.25
2019-03-26T06:04:49.644Z,9.23
2019-03-26T06:05:22.806Z,8.25
2019-03-26T06:05:55.831Z,8.58
2019-03-26T06:06:28.867Z,8.73
2019-03-26T06:07:05.148Z,8.28
2019-03-26T06:07:36.718Z,8.85
2019-03-26T06:08:10.173Z,7.95
2019-03-26T06:08:43.203Z,8.93
2019-03-26T06:09:16.555Z,7.37
2019-03-26T06:09:49.582Z,8.08
2019-03-26T06:10:22.611Z,7.95
2019-03-26T06:10:55.996Z,8.18
2019-03-26T06:11:28.998Z,8.70
2019-03-26T06:12:03.336Z,7.65
2019-03-26T06:12:36.364Z,8.90
2019-03-26T06:13:09.772Z,8.85
2019-03-26T06:13:42.844Z,8.00
2019-03-26T06:14:16.135Z,7.65
2019-03-26T06:14:49.490Z,8.48
2019-03-26T06:15:22.528Z,8.15
2019-03-26T06:15:55.560Z,7.92
2019-03-26T06:16:38.224Z,8.35
2019-03-26T06:17:03.424Z,9.75
2019-03-26T06:17:36.448Z,8.90
2019-03-26T06:18:10.335Z,8.80
2019-03-26T06:18:43.915Z,8.28
2019-03-26T06:19:17.873Z,8.50
2019-03-26T06:19:51.832Z,9.35
2019-03-26T06:20:24.980Z,7.53
2019-03-26T06:20:58.374Z,7.87
2019-03-26T06:21:31.394Z,8.43
2019-03-26T06:22:04.490Z,7.80
2019-03-26T06:22:37.879Z,7.90
2019-03-26T06:23:10.867Z,8.63
2019-03-26T06:23:44.066Z,7.53
2019-03-26T06:24:17.408Z,8.55
2019-03-26T06:24:50.466Z,8.13
2019-03-26T06:25:23.861Z,7.92
2019-03-26T06:25:56.893Z,7.08
2019-03-26T06:26:29.928Z,8.98
2019-03-26T06:27:02.949Z,7.60
2019-03-26T06:27:36.753Z,8.05
2019-03-26T06:28:09.780Z,8.75
2019-03-26T06:28:43.100Z,8.38
2019-03-26T06:29:16.323Z,7.90
2019-03-26T06:29:49.795Z,7.20
2019-03-26T06:30:23.142Z,7.50
2019-03-26T06:30:56.552Z,7.62
2019-03-26T06:31:29.590Z,7.90
2019-03-26T06:32:02.620Z,7.50
2019-03-26T06:32:35.650Z,7.87
2019-03-26T06:33:08.662Z,8.18
2019-03-26T06:33:41.686Z,8.53
2019-03-26T06:34:14.710Z,8.13
2019-03-26T06:34:47.740Z,8.20
2019-03-26T06:35:20.768Z,8.15
2019-03-26T06:35:53.942Z,8.25
2019-03-26T06:36:26.977Z,7.95
2019-03-26T06:37:00.023Z,7.92
2019-03-26T06:37:33.062Z,8.70
2019-03-26T06:38:06.095Z,8.33
2019-03-26T06:38:39.122Z,7.95
2019-03-26T06:39:12.174Z,8.40
2019-03-26T06:39:45.530Z,8.73
2019-03-26T06:40:18.550Z,8.70
2019-03-26T06:40:51.862Z,8.88
2019-03-26T06:41:25.327Z,10.13
2019-03-26T06:41:59.929Z,8.83
2019-03-26T06:42:32.922Z,10.15
2019-03-26T06:43:05.938Z,9.78
2019-03-26T06:43:38.959Z,9.45
2019-03-26T06:44:11.979Z,9.90
2019-03-26T06:44:44.992Z,9.05
2019-03-26T06:45:18.344Z,8.75
2019-03-26T06:45:51.369Z,8.83
2019-03-26T06:46:24.400Z,9.13
2019-03-26T06:46:57.474Z,9.58
2019-03-26T06:47:30.501Z,10.00
2019-03-26T06:48:04.450Z,8.93
2019-03-26T06:48:37.761Z,9.70
2019-03-26T06:49:10.787Z,9.50
2019-03-26T06:49:44.093Z,9.60
2019-03-26T06:50:17.116Z,10.15
2019-03-26T06:50:50.161Z,9.73
2019-03-26T06:51:23.623Z,10.68
2019-03-26T06:51:57.007Z,9.50
2019-03-26T06:52:30.075Z,10.20
2019-03-26T06:53:03.116Z,10.15
2019-03-26T06:53:36.131Z,11.83
2019-03-26T06:54:09.155Z,10.90
2019-03-26T06:54:42.577Z,10.95
2019-03-26T06:55:15.692Z,9.73
2019-03-26T06:55:49.195Z,9.38
2019-03-26T06:56:22.220Z,10.53
2019-03-26T06:56:55.238Z,9.33
2019-03-26T06:57:35.602Z,11.28
2019-03-26T06:58:03.413Z,11.15
2019-03-26T06:58:36.419Z,12.28
2019-03-26T06:59:09.465Z,11.22
2019-03-26T06:59:42.804Z,10.72
2019-03-26T07:00:21.788Z,10.80
2019-03-26T07:00:54.811Z,10.95
2019-03-26T07:01:27.822Z,10.50
2019-03-26T07:02:01.247Z,11.10
2019-03-26T07:02:34.493Z,10.63
2019-03-26T07:03:07.534Z,10.25
2019-03-26T07:03:40.574Z,11.45
2019-03-26T07:04:13.709Z,10.20
2019-03-26T07:04:46.009Z,9.68
2019-03-26T07:05:19.010Z,10.43
2019-03-26T07:05:52.048Z,11.22
2019-03-26T07:06:25.788Z,11.12
2019-03-26T07:06:58.815Z,11.05
2019-03-26T07:07:32.165Z,10.30
2019-03-26T07:08:05.251Z,10.68
2019-03-26T07:08:38.302Z,11.22
2019-03-26T07:09:11.663Z,10.00
2019-03-26T07:09:44.689Z,10.35
2019-03-26T07:10:21.748Z,10.00
2019-03-26T07:10:55.222Z,10.72
2019-03-26T07:11:28.249Z,10.20
2019-03-26T07:12:01.726Z,9.78
2019-03-26T07:12:34.748Z,9.78
2019-03-26T07:13:07.792Z,9.85
2019-03-26T07:13:40.821Z,9.25
2019-03-26T07:14:13.888Z,9.85
2019-03-26T07:14:47.198Z,9.28
2019-03-26T07:15:20.644Z,10.68
2019-03-26T07:15:54.264Z,10.03
2019-03-26T07:16:27.297Z,9.53
2019-03-26T07:17:00.314Z,9.70
2019-03-26T07:17:33.337Z,9.45
2019-03-26T07:18:07.196Z,9.55
2019-03-26T07:18:40.220Z,8.75
2019-03-26T07:19:13.227Z,8.85
2019-03-26T07:19:46.284Z,9.48
2019-03-26T07:20:19.802Z,9.28
2019-03-26T07:20:53.287Z,9.83